Andersonville, TN (37705)

5:09 PM EST on February 10, 2016 (GMT -0500)
Norris Farms | | Change Station
CLOSE
Current Station
Personal Weather Station
Location: Norris, TN
Elevation: 1073 ft
Nearby Weather Stations

Elev 1073 ft 36.20 °N, 84.06 °W | Updated 3 seconds ago

Clear
Clear
27.7 °F
Feels Like 28 °F
N
3.0
Wind Variable Wind from SSW
Gusts 7.0 mph

Today
High -- | Low -- °F
--% Chance of Precip.
Yesterday
High -- | Low -- °F
Precip. -- in
Pressure 30.15 in
Visibility 10.0 miles
Clouds Few 12000 ft
Windchill 28 °F
Dew Point 7 °F
Humidity 41%
Rainfall 0.00 in
Snow Depth Not available.
7:29 AM 6:11 PM
Waxing Crescent, 7% visible
METAR KOQT 102153Z AUTO 27005KT 10SM FEW120 M01/M17 A3008 RMK AO2 SLP209 T10111167
Pressure 30.15 in
Visibility 10.0 miles
Clouds Few 12000 ft
Windchill 28 °F
Dew Point 7 °F
Humidity 41%
Rainfall 0.00 in
Snow Depth Not available.
7:29 AM 6:11 PM
Waxing Crescent, 7% visible
METAR KOQT 102153Z AUTO 27005KT 10SM FEW120 M01/M17 A3008 RMK AO2 SLP209 T10111167

10-Day Weather Forecast

Almanac

Astronomy

Feb. 10, 2016 Rise Set
Actual Time
Civil Twilight
Nautical Twilight
Astronomical Twilight
Moon
Length of Visible Light
Length of Day
Tomorrow will be .
, % of the Moon is Illuminated

Today's Extremes

State Highs State Lows

Community

WunderPhotos

Upload Photos

1,891,959 photos uploaded!

WunderBlog® & News

Nearby

Air Quality

  Air Quality AQ Index Pollutant
Not available.

Snow Depth

Station Depth Elevation

Earthquake Activity

City Distance Mag. Time & Date
Minimum magnitude displayed is 2.5.

Coastal Water Temperatures

Place Temperature

Stations

Nearby Weather Stations

Station Location Temp. Windchill Dew Point Humidity Wind Precip. Elev Updated Type
                   

Watches & Warnings

There are currently no watches in effect.